Time;durP1;ratioP1;P1;durP2;ratioP2;P2;SDS_P1;SDS_P2;PMS_P1;PMS_P2;Temp;Humidity;BMP_temperature;BMP_pressure;BME280_temperature;BME280_humidity;BME280_pressure;Samples;Min_cycle;Max_cycle;Signal;HPM_P1;HPM_P2
2021/11/17 02:27:46;;;;;;;52.70;25.70;;;;;;;-1.11;65.74;100756.99;24609;1359;3049336;-69
2021/11/17 02:30:37;;;;;;;64.00;27.00;;;;;;;-1.20;66.01;100761.40;24542;1361;3055343;-68
2021/11/17 02:33:22;;;;;;;58.50;25.10;;;;;;;-1.24;65.91;100759.64;24642;1361;3054705;-69
2021/11/17 02:35:53;;;;;;;53.00;24.90;;;;;;;-1.24;65.57;100757.05;24635;1355;3057498;-69
2021/11/17 02:38:32;;;;;;;50.30;24.10;;;;;;;-1.28;65.86;100759.27;24646;1355;3026648;-78
2021/11/17 02:41:07;;;;;;;56.90;24.00;;;;;;;-1.26;65.67;100758.06;24620;1352;3052601;-66
2021/11/17 02:43:51;;;;;;;59.50;27.10;;;;;;;-1.26;65.71;100758.41;24646;1355;3054211;-70
2021/11/17 02:46:27;;;;;;;56.00;27.10;;;;;;;-1.25;65.86;100761.00;24638;1360;3070888;-64
2021/11/17 02:49:07;;;;;;;50.30;24.80;;;;;;;-1.24;65.96;100759.47;24636;1355;3049493;-70
2021/11/17 02:51:51;;;;;;;61.50;27.20;;;;;;;-1.17;65.46;100761.40;24462;1358;3054853;-65
2021/11/17 02:55:03;;;;;;;53.00;25.40;;;;;;;-1.17;65.47;100758.84;24472;1362;3054413;-75
2021/11/17 02:57:38;;;;;;;54.10;24.80;;;;;;;-1.16;65.57;100757.30;24503;1360;3056660;-67
2021/11/17 03:00:38;;;;;;;50.80;20.80;;;;;;;-1.11;65.14;100758.53;24481;1356;3050311;-69
2021/11/17 03:03:37;;;;;;;48.00;21.60;;;;;;;-1.02;64.62;100752.59;24448;1356;3051660;-71
2021/11/17 03:06:50;;;;;;;45.70;21.20;;;;;;;-1.10;64.62;100751.32;24447;1363;3051652;-68
2021/11/17 03:09:28;;;;;;;42.10;19.90;;;;;;;-1.20;64.87;100753.83;24463;1355;3070926;-68
2021/11/17 03:12:41;;;;;;;51.70;22.00;;;;;;;-1.26;64.94;100757.90;24528;1355;3047847;-72
2021/11/17 03:15:36;;;;;;;53.20;23.20;;;;;;;-1.31;65.18;100750.46;24474;1356;3052839;-76
2021/11/17 03:18:42;;;;;;;49.50;23.50;;;;;;;-1.33;65.23;100756.46;24223;1349;3402209;-72
2021/11/17 03:21:20;;;;;;;49.10;23.30;;;;;;;-1.36;65.35;100760.40;24483;1356;3056768;-70
2021/11/17 03:23:49;;;;;;;50.70;22.80;;;;;;;-1.36;65.36;100754.04;24455;1355;3049985;-70
2021/11/17 03:26:27;;;;;;;55.40;23.90;;;;;;;-1.35;65.29;100754.22;24437;1350;3030436;-67
2021/11/17 03:29:27;;;;;;;53.00;24.10;;;;;;;-1.32;65.36;100750.63;24377;1360;3056750;-68
2021/11/17 03:32:17;;;;;;;57.40;25.90;;;;;;;-1.32;65.35;100746.84;24455;1360;3052546;-67
2021/11/17 03:35:04;;;;;;;61.70;25.90;;;;;;;-1.34;65.43;100745.63;24444;1358;3054014;-69
2021/11/17 03:37:43;;;;;;;59.90;25.00;;;;;;;-1.36;65.62;100745.44;24542;1355;3052358;-71
2021/11/17 03:40:18;;;;;;;54.60;25.70;;;;;;;-1.37;65.78;100747.84;24535;1354;3071503;-72
2021/11/17 03:43:07;;;;;;;57.50;25.60;;;;;;;-1.36;65.69;100742.85;24504;1352;3048676;-70
2021/11/17 03:45:51;;;;;;;64.10;24.00;;;;;;;-1.40;65.77;100742.14;24509;1357;3052009;-74
2021/11/17 03:48:38;;;;;;;47.20;19.80;;;;;;;-1.36;65.39;100739.60;24497;1356;3052285;-74
2021/11/17 03:51:07;;;;;;;52.90;20.70;;;;;;;-1.28;64.94;100734.84;24512;1355;3056382;-71
2021/11/17 03:53:57;;;;;;;52.80;20.80;;;;;;;-1.32;64.96;100738.77;24523;1358;3026111;-71
2021/11/17 03:56:27;;;;;;;47.90;22.50;;;;;;;-1.37;65.32;100738.21;24489;1361;3054581;-72
2021/11/17 03:59:10;;;;;;;49.10;21.20;;;;;;;-1.32;65.40;100739.45;24506;1354;3026623;-70
2021/11/17 04:02:00;;;;;;;62.60;24.10;;;;;;;-1.30;65.27;100735.70;24509;1359;3052497;-73
2021/11/17 04:04:57;;;;;;;53.70;25.20;;;;;;;-1.34;65.78;100732.04;24455;1355;3051402;-68
2021/11/17 04:07:26;;;;;;;69.40;28.00;;;;;;;-1.40;65.74;100728.39;24519;1357;3057164;-70
2021/11/17 04:10:14;;;;;;;62.20;26.80;;;;;;;-1.49;66.13;100728.48;24424;1354;3026591;-75
2021/11/17 04:13:09;;;;;;;64.80;27.50;;;;;;;-1.55;66.32;100726.02;24528;1354;3052544;-72
2021/11/17 04:15:44;;;;;;;69.90;30.00;;;;;;;-1.59;66.41;100724.60;24508;1361;3052770;-72
2021/11/17 04:18:25;;;;;;;61.80;27.70;;;;;;;-1.62;66.23;100728.17;24462;1358;3069644;-70
2021/11/17 04:21:03;;;;;;;68.30;28.10;;;;;;;-1.65;66.34;100729.70;24483;1359;3051802;-72
2021/11/17 04:23:54;;;;;;;63.00;29.50;;;;;;;-1.63;66.26;100729.90;24517;1359;3055326;-72
2021/11/17 04:26:35;;;;;;;64.20;29.20;;;;;;;-1.64;66.61;100730.23;24531;1361;3054481;-70
2021/11/17 04:29:29;;;;;;;64.30;29.30;;;;;;;-1.67;66.39;100728.14;24565;1360;3057611;-69
2021/11/17 04:32:11;;;;;;;70.20;31.20;;;;;;;-1.72;66.66;100725.34;24444;1357;3052816;-74
2021/11/17 04:35:18;;;;;;;62.30;27.90;;;;;;;-1.69;66.73;100730.70;24566;1354;3053475;-69
2021/11/17 04:38:09;;;;;;;60.20;26.60;;;;;;;-1.59;66.71;100736.64;24425;1356;3051338;-73
2021/11/17 04:41:24;;;;;;;56.70;27.20;;;;;;;-1.41;66.47;100737.48;30828;1359;3029407;-72
2021/11/17 04:43:55;;;;;;;52.80;27.60;;;;;;;-0.95;65.03;100732.33;24360;1369;3054834;-69
2021/11/17 04:46:30;;;;;;;46.40;20.00;;;;;;;-0.62;63.46;100729.09;24470;1363;3026701;-69
2021/11/17 04:49:17;;;;;;;39.60;19.90;;;;;;;-0.74;63.85;100732.82;24482;1359;3056170;-68
2021/11/17 04:51:49;;;;;;;47.20;20.60;;;;;;;-0.90;63.78;100729.27;24471;1351;3049651;-70
2021/11/17 04:54:27;;;;;;;50.30;21.20;;;;;;;-0.98;63.98;100735.92;24295;1364;3027321;-74
2021/11/17 04:57:25;;;;;;;44.80;19.50;;;;;;;-1.05;64.03;100731.75;24478;1356;3049962;-71
2021/11/17 05:00:10;;;;;;;44.60;20.00;;;;;;;-1.09;64.21;100735.84;24549;1361;3071745;-68
2021/11/17 05:02:57;;;;;;;39.70;19.10;;;;;;;-1.11;64.35;100734.98;24469;1361;3049653;-69
2021/11/17 05:05:41;;;;;;;37.30;16.70;;;;;;;-1.12;64.39;100732.90;24529;1358;3052868;-73
2021/11/17 05:08:23;;;;;;;34.40;17.30;;;;;;;-1.10;64.43;100728.62;24484;1358;3054637;-71
2021/11/17 05:11:27;;;;;;;40.50;16.90;;;;;;;-1.17;64.60;100724.27;24461;1357;3055771;-71
2021/11/17 05:14:11;;;;;;;32.00;16.50;;;;;;;-1.18;64.83;100726.48;24468;1361;3050062;-70
2021/11/17 05:17:22;;;;;;;38.80;16.20;;;;;;;-1.19;65.11;100722.37;24465;1360;3055437;-67
2021/11/17 05:20:23;;;;;;;38.90;16.10;;;;;;;-1.12;64.96;100724.47;24327;1367;3052588;-75
2021/11/17 05:23:09;;;;;;;38.60;16.00;;;;;;;-1.07;64.98;100726.23;24398;1361;3068380;-68
2021/11/17 05:25:40;;;;;;;36.90;15.40;;;;;;;-1.09;65.33;100727.25;24505;1357;3048944;-69
2021/11/17 05:28:25;;;;;;;40.30;17.20;;;;;;;-1.06;65.53;100728.48;24443;1361;3026049;-71
2021/11/17 05:31:35;;;;;;;40.80;16.90;;;;;;;-1.04;66.03;100726.77;24506;1360;3054376;-68
2021/11/17 05:34:13;;;;;;;33.80;16.10;;;;;;;-1.08;66.82;100729.84;24336;1370;3059399;-71
2021/11/17 05:36:53;;;;;;;36.20;17.80;;;;;;;-1.01;66.63;100730.41;24475;1356;3052944;-69
2021/11/17 05:39:41;;;;;;;34.10;17.10;;;;;;;-0.97;66.44;100733.88;24489;1354;3053183;-71
2021/11/17 05:42:38;;;;;;;37.80;16.80;;;;;;;-0.98;66.97;100737.48;24484;1360;3053279;-70
2021/11/17 05:45:23;;;;;;;41.00;17.50;;;;;;;-1.09;66.78;100733.45;24481;1350;3069601;-72
2021/11/17 05:48:16;;;;;;;37.20;16.70;;;;;;;-1.09;66.77;100732.24;24522;1361;3051631;-72
2021/11/17 05:51:03;;;;;;;39.10;16.20;;;;;;;-0.98;66.42;100728.02;24516;1355;3054727;-71
2021/11/17 05:53:51;;;;;;;38.70;16.30;;;;;;;-0.89;66.17;100727.39;24464;1363;3054045;-70
2021/11/17 05:57:00;;;;;;;36.70;15.60;;;;;;;-0.83;66.01;100724.67;24520;1355;3056477;-69
2021/11/17 05:59:58;;;;;;;42.20;16.00;;;;;;;-0.78;65.80;100718.52;24443;1355;3049344;-71
2021/11/17 06:03:05;;;;;;;36.60;15.70;;;;;;;-0.69;65.48;100721.98;24434;1357;3056519;-73
2021/11/17 06:05:33;;;;;;;40.00;15.30;;;;;;;-0.63;64.82;100725.65;24504;1355;3050258;-69
2021/11/17 06:08:03;;;;;;;37.80;15.60;;;;;;;-0.63;64.83;100728.41;24483;1360;3026523;-75
2021/11/17 06:10:40;;;;;;;34.60;15.50;;;;;;;-0.56;64.85;100732.91;24471;1360;3026572;-66
2021/11/17 06:13:10;;;;;;;39.30;16.50;;;;;;;-0.51;64.46;100733.98;24436;1361;3050239;-69
2021/11/17 06:15:40;;;;;;;37.50;16.40;;;;;;;-0.47;64.32;100730.03;24470;1357;3028411;-70
2021/11/17 06:18:12;;;;;;;37.90;16.50;;;;;;;-0.34;64.60;100729.23;24499;1361;3026346;-70
2021/11/17 06:20:41;;;;;;;36.90;16.00;;;;;;;-0.24;64.45;100728.25;24469;1361;3027354;-68
2021/11/17 06:23:21;;;;;;;37.20;15.00;;;;;;;-0.17;64.37;100721.20;24515;1360;3026644;-69
2021/11/17 06:25:50;;;;;;;37.50;16.50;;;;;;;-0.08;64.20;100716.77;24478;1357;3056587;-71
2021/11/17 06:28:28;;;;;;;35.70;15.70;;;;;;;-0.06;64.11;100720.72;24518;1357;3029878;-68
2021/11/17 06:30:58;;;;;;;30.80;16.00;;;;;;;0.01;64.01;100715.74;24447;1358;3051502;-69
2021/11/17 06:33:26;;;;;;;42.30;16.60;;;;;;;0.11;63.61;100718.70;24490;1357;3026581;-68
2021/11/17 06:35:57;;;;;;;38.30;17.90;;;;;;;0.13;63.65;100713.88;24457;1360;3055226;-69
2021/11/17 06:38:27;;;;;;;39.60;17.40;;;;;;;0.21;63.14;100712.02;24463;1355;3026613;-75
2021/11/17 06:40:59;;;;;;;37.20;17.00;;;;;;;0.28;63.32;100714.77;24490;1361;3052353;-72
2021/11/17 06:43:28;;;;;;;44.90;16.20;;;;;;;0.32;63.27;100714.60;24492;1358;3026145;-68
2021/11/17 06:45:57;;;;;;;35.20;15.50;;;;;;;0.37;63.17;100716.67;24478;1361;3069550;-66
2021/11/17 06:48:30;;;;;;;40.70;17.30;;;;;;;0.49;63.23;100714.97;24494;1351;3026299;-71
2021/11/17 06:50:59;;;;;;;40.50;18.10;;;;;;;0.53;63.03;100714.10;24494;1354;3026859;-73
2021/11/17 06:53:28;;;;;;;30.20;16.30;;;;;;;0.59;63.07;100711.69;24433;1359;3028076;-71
2021/11/17 06:55:57;;;;;;;36.10;16.50;;;;;;;0.75;62.82;100712.21;24508;1360;3048730;-74
2021/11/17 06:58:26;;;;;;;41.40;17.70;;;;;;;0.74;62.76;100711.86;24562;1357;3026585;-66
2021/11/17 07:00:56;;;;;;;39.10;18.50;;;;;;;0.73;62.93;100703.76;24429;1360;3070883;-70
2021/11/17 07:03:26;;;;;;;35.40;17.00;;;;;;;0.67;63.11;100703.93;24467;1359;3028201;-71
2021/11/17 07:05:56;;;;;;;37.00;17.00;;;;;;;0.82;63.11;100712.02;24472;1357;3052409;-71
2021/11/17 07:08:25;;;;;;;48.50;19.30;;;;;;;0.85;62.87;100704.27;24445;1355;3026529;-72
2021/11/17 07:10:54;;;;;;;41.60;18.30;;;;;;;0.84;62.98;100702.70;24532;1357;3027783;-73
2021/11/17 07:13:23;;;;;;;32.10;16.90;;;;;;;0.90;62.71;100697.52;24515;1355;3048417;-73
2021/11/17 07:15:54;;;;;;;41.20;17.00;;;;;;;0.90;62.61;100700.13;24528;1355;3026504;-71
2021/11/17 07:18:23;;;;;;;39.40;17.60;;;;;;;0.96;62.48;100700.80;24462;1359;3026313;-69
2021/11/17 07:21:08;;;;;;;38.90;17.00;;;;;;;1.04;62.10;100695.09;24510;1358;3053561;-72
2021/11/17 07:23:37;;;;;;;44.90;16.80;;;;;;;1.19;61.95;100690.23;24452;1357;3026729;-70
2021/11/17 07:26:08;;;;;;;34.30;16.10;;;;;;;1.23;61.85;100689.86;24454;1357;3026698;-73
2021/11/17 07:28:39;;;;;;;36.90;17.60;;;;;;;1.25;61.65;100692.63;24498;1355;3052785;-70
2021/11/17 07:31:09;;;;;;;37.40;16.10;;;;;;;1.25;61.77;100685.38;24476;1362;3026251;-73
2021/11/17 07:33:37;;;;;;;37.60;16.50;;;;;;;1.34;61.39;100681.73;24477;1355;3026569;-75
2021/11/17 07:36:07;;;;;;;36.60;14.80;;;;;;;1.33;61.36;100680.00;24551;1352;3050230;-66
2021/11/17 07:38:36;;;;;;;41.10;14.60;;;;;;;1.45;61.28;100681.17;24439;1357;3026626;-72
2021/11/17 07:41:05;;;;;;;35.70;16.00;;;;;;;1.54;61.19;100685.79;24527;1357;3026889;-70
2021/11/17 07:43:34;;;;;;;30.30;15.50;;;;;;;1.55;61.24;100687.34;24508;1355;3052472;-65
2021/11/17 07:46:03;;;;;;;34.80;16.50;;;;;;;1.58;61.71;100683.38;24606;1357;3026683;-70
2021/11/17 07:48:33;;;;;;;39.80;16.50;;;;;;;1.67;61.63;100680.38;24658;1358;3053279;-73
2021/11/17 07:51:02;;;;;;;36.80;16.90;;;;;;;1.73;61.15;100679.16;24555;1355;3026839;-69
2021/11/17 07:53:31;;;;;;;37.90;17.20;;;;;;;1.75;61.21;100682.43;24661;1355;3026303;-69
2021/11/17 07:56:01;;;;;;;37.20;15.10;;;;;;;1.77;61.35;100682.77;24737;1355;3026118;-69
2021/11/17 07:58:35;;;;;;;34.10;15.50;;;;;;;1.91;60.94;100684.76;24636;1354;3049670;-73
2021/11/17 08:01:04;;;;;;;36.90;16.20;;;;;;;2.00;61.13;100687.13;24674;1357;3069195;-70
2021/11/17 08:03:35;;;;;;;35.40;16.20;;;;;;;2.02;60.88;100687.46;24622;1358;3027635;-68
2021/11/17 08:06:05;;;;;;;41.90;17.20;;;;;;;2.20;60.90;100686.48;24676;1355;3051418;-73
2021/11/17 08:08:34;;;;;;;30.00;15.70;;;;;;;2.27;60.68;100684.88;24470;1351;3026653;-67
2021/11/17 08:11:23;;;;;;;33.70;15.30;;;;;;;2.32;60.36;100688.65;24485;1360;3050352;-70
2021/11/17 08:13:53;;;;;;;33.30;14.90;;;;;;;2.35;60.54;100686.72;24540;1355;3026683;-71
2021/11/17 08:16:22;;;;;;;30.30;13.30;;;;;;;2.44;59.95;100688.91;24690;1358;3026669;-68
2021/11/17 08:18:51;;;;;;;23.40;10.90;;;;;;;2.43;59.98;100686.33;24676;1361;3047664;-70
2021/11/17 08:21:20;;;;;;;27.00;11.70;;;;;;;2.43;59.98;100684.59;24570;1361;3026649;-73
2021/11/17 08:23:49;;;;;;;27.50;11.40;;;;;;;2.49;59.85;100683.50;24490;1355;3070913;-71
2021/11/17 08:26:19;;;;;;;26.90;11.90;;;;;;;2.59;59.69;100683.26;24482;1358;3026642;-67
2021/11/17 08:28:48;;;;;;;25.20;11.40;;;;;;;2.56;60.17;100685.19;24522;1353;3051668;-67
2021/11/17 08:31:18;;;;;;;25.80;11.40;;;;;;;2.63;60.12;100679.92;24551;1357;3026591;-74
2021/11/17 08:33:47;;;;;;;27.70;12.40;;;;;;;2.85;59.54;100677.64;24502;1359;3026954;-74
2021/11/17 08:36:16;;;;;;;34.10;11.00;;;;;;;3.02;58.78;100670.56;24548;1360;3028656;-69
2021/11/17 08:38:49;;;;;;;25.80;12.80;;;;;;;3.09;58.13;100671.88;24518;1359;3071062;-69
2021/11/17 08:41:18;;;;;;;24.00;10.90;;;;;;;3.14;57.87;100666.98;24469;1360;3028401;-69
2021/11/17 08:43:47;;;;;;;21.50;10.50;;;;;;;3.17;57.38;100660.53;24541;1355;3026867;-72
2021/11/17 08:46:16;;;;;;;25.80;10.50;;;;;;;3.15;57.24;100656.58;24590;1361;3070461;-67
2021/11/17 08:48:45;;;;;;;21.90;9.80;;;;;;;3.29;56.89;100654.34;24660;1355;3026650;-68
2021/11/17 08:51:16;;;;;;;20.60;9.30;;;;;;;3.29;56.69;100648.81;24613;1357;3051303;-68
2021/11/17 08:53:46;;;;;;;21.70;9.80;;;;;;;3.43;56.52;100653.49;24506;1360;3026957;-69
2021/11/17 08:56:15;;;;;;;20.50;10.20;;;;;;;3.49;56.15;100645.27;24459;1360;3028697;-74
2021/11/17 08:58:47;;;;;;;24.70;11.00;;;;;;;3.48;56.32;100644.24;24467;1361;3030160;-69
2021/11/17 09:01:16;;;;;;;23.00;9.90;;;;;;;3.64;56.27;100641.61;24515;1355;3067830;-75
2021/11/17 09:03:45;;;;;;;28.30;10.90;;;;;;;3.69;55.97;100639.47;24520;1358;3026895;-74
2021/11/17 09:06:15;;;;;;;21.80;10.90;;;;;;;3.75;55.86;100632.63;24525;1361;3050842;-76
2021/11/17 09:08:43;;;;;;;21.60;11.70;;;;;;;3.78;55.56;100629.30;24437;1355;3026654;-74
2021/11/17 09:11:16;;;;;;;26.10;11.90;;;;;;;3.75;55.46;100625.01;24543;1360;3054646;-71
2021/11/17 09:13:46;;;;;;;23.30;11.10;;;;;;;3.93;55.27;100620.41;24563;1351;3028445;-71
2021/11/17 09:16:15;;;;;;;24.50;11.20;;;;;;;4.14;54.87;100615.75;24461;1356;3027481;-75
2021/11/17 09:18:44;;;;;;;24.10;10.00;;;;;;;4.23;53.97;100615.97;24479;1359;3026773;-72
2021/11/17 09:21:16;;;;;;;23.40;10.80;;;;;;;4.21;53.77;100614.26;24452;1355;3051559;-70
2021/11/17 09:23:45;;;;;;;24.00;12.60;;;;;;;4.36;53.79;100612.80;24467;1358;3026712;-72
2021/11/17 09:26:14;;;;;;;31.70;12.50;;;;;;;4.56;53.66;100607.43;24608;1358;3026637;-65
2021/11/17 09:28:44;;;;;;;25.40;11.60;;;;;;;4.64;52.90;100599.65;24568;1357;3026812;-67
2021/11/17 09:31:13;;;;;;;30.80;10.70;;;;;;;4.75;52.54;100601.70;24527;1359;3028350;-67
2021/11/17 09:33:43;;;;;;;24.90;11.30;;;;;;;4.68;52.47;100598.55;24417;1355;3026672;-71
2021/11/17 09:36:14;;;;;;;23.80;10.90;;;;;;;4.81;52.55;100597.60;24470;1355;3052553;-66
2021/11/17 09:38:44;;;;;;;19.80;10.00;;;;;;;4.69;52.40;100600.08;24511;1352;3026828;-72
2021/11/17 09:41:15;;;;;;;19.90;10.00;;;;;;;4.70;52.91;100594.17;24482;1358;3027084;-72
2021/11/17 09:43:46;;;;;;;22.90;10.00;;;;;;;4.61;52.71;100590.34;24441;1357;3028745;-73
2021/11/17 09:46:19;;;;;;;24.10;11.40;;;;;;;4.71;52.18;100591.02;24529;1356;3026950;-70
2021/11/17 09:48:50;;;;;;;22.50;10.30;;;;;;;4.74;52.05;100590.45;24507;1357;3025871;-71
2021/11/17 09:51:22;;;;;;;25.30;10.30;;;;;;;5.03;51.78;100590.59;24511;1356;3027168;-70
2021/11/17 09:54:33;;;;;;;22.30;10.00;;;;;;;5.03;50.92;100588.84;24495;1361;3026344;-72
2021/11/17 09:57:15;;;;;;;21.80;10.70;;;;;;;5.21;50.83;100590.23;24518;1355;3052156;-69
2021/11/17 10:00:17;;;;;;;22.00;10.00;;;;;;;5.48;50.45;100587.76;24637;1356;3051647;-68
2021/11/17 10:03:08;;;;;;;20.40;9.20;;;;;;;5.42;49.85;100585.46;24573;1354;3056931;-73
2021/11/17 10:12:00;;;;;;;20.80;9.60;;;;;;;5.67;48.81;100579.70;24400;1363;3054094;-72
2021/11/17 10:14:37;;;;;;;25.70;10.70;;;;;;;5.48;48.69;100575.23;24530;1361;3069503;-71
2021/11/17 10:17:28;;;;;;;23.80;10.90;;;;;;;5.57;49.14;100573.31;24538;1361;3047993;-75
2021/11/17 10:20:20;;;;;;;24.40;10.30;;;;;;;5.54;49.01;100571.96;24560;1346;3052857;-71
2021/11/17 10:22:52;;;;;;;25.30;10.70;;;;;;;5.70;48.07;100573.55;24446;1355;3050410;-71
2021/11/17 10:25:22;;;;;;;22.90;11.20;;;;;;;5.85;47.71;100572.49;24540;1361;3030350;-76
2021/11/17 10:27:58;;;;;;;21.60;11.20;;;;;;;5.95;48.10;100578.54;24494;1351;3028889;-70
2021/11/17 10:30:34;;;;;;;23.40;10.80;;;;;;;6.14;47.34;100577.77;24504;1355;3055909;-71
2021/11/17 10:33:18;;;;;;;23.50;11.90;;;;;;;6.12;47.09;100579.52;24510;1355;3051268;-73
2021/11/17 10:36:06;;;;;;;24.00;12.30;;;;;;;6.10;47.27;100582.20;24446;1355;3071446;-66
2021/11/17 10:38:42;;;;;;;25.60;12.60;;;;;;;6.02;47.53;100579.23;24492;1354;3049066;-75
2021/11/17 10:41:20;;;;;;;25.80;12.20;;;;;;;6.04;47.55;100572.26;24523;1355;3052529;-81
2021/11/17 10:43:58;;;;;;;26.20;11.50;;;;;;;6.07;47.33;100569.04;24534;1357;3051519;-73
2021/11/17 10:46:33;;;;;;;24.80;11.60;;;;;;;6.34;46.68;100567.86;24521;1355;3056418;-68
2021/11/17 10:49:05;;;;;;;20.40;10.10;;;;;;;6.39;45.70;100560.41;24470;1358;3051939;-73
2021/11/17 10:51:49;;;;;;;21.10;10.30;;;;;;;6.29;45.88;100563.63;24520;1357;3026451;-73
2021/11/17 10:54:20;;;;;;;21.90;10.20;;;;;;;6.33;45.94;100560.23;24482;1363;3053965;-70
2021/11/17 10:57:09;;;;;;;23.70;10.90;;;;;;;6.38;46.14;100558.70;24496;1355;3026944;-67
2021/11/17 10:59:38;;;;;;;29.50;12.10;;;;;;;6.57;46.24;100554.89;24500;1359;3048669;-73
2021/11/17 11:02:09;;;;;;;23.00;11.10;;;;;;;6.53;46.13;100549.59;24476;1357;3026292;-66
2021/11/17 11:04:43;;;;;;;24.00;9.40;;;;;;;6.49;45.51;100551.81;24449;1361;3026883;-72
2021/11/17 11:07:27;;;;;;;17.00;9.50;;;;;;;6.50;45.03;100552.11;24455;1350;3056220;-73
2021/11/17 11:10:24;;;;;;;17.60;8.70;;;;;;;6.46;45.23;100548.23;24485;1356;3050055;-68
2021/11/17 11:12:53;;;;;;;19.50;9.80;;;;;;;6.50;45.22;100548.62;24488;1356;3052727;-70
2021/11/17 11:15:26;;;;;;;22.60;10.20;;;;;;;6.44;45.72;100546.02;24474;1358;3028428;-71
2021/11/17 11:18:10;;;;;;;22.00;9.90;;;;;;;6.49;45.64;100545.35;24480;1357;3052571;-66
2021/11/17 11:20:48;;;;;;;20.30;9.90;;;;;;;6.53;45.48;100546.67;24500;1357;3055581;-67
2021/11/17 11:23:21;;;;;;;18.60;9.60;;;;;;;6.55;45.43;100549.20;24500;1358;3051230;-72
2021/11/17 11:26:07;;;;;;;22.70;10.20;;;;;;;6.52;45.45;100545.62;24426;1361;3071558;-71
2021/11/17 11:28:42;;;;;;;23.80;11.20;;;;;;;6.50;45.19;100543.41;24435;1361;3051737;-68
2021/11/17 11:31:12;;;;;;;25.60;10.60;;;;;;;6.40;45.39;100540.04;24449;1363;3054746;-71
2021/11/17 11:33:54;;;;;;;23.00;11.00;;;;;;;6.47;45.71;100534.27;24476;1360;3026777;-71
2021/11/17 11:36:23;;;;;;;22.90;9.90;;;;;;;6.42;45.30;100531.63;24527;1358;3057450;-73
2021/11/17 11:39:12;;;;;;;18.70;9.20;;;;;;;6.46;45.06;100532.22;24528;1358;3026510;-74
2021/11/17 11:41:45;;;;;;;20.70;9.40;;;;;;;6.16;45.12;100535.94;24512;1355;3051471;-75
2021/11/17 11:44:20;;;;;;;22.20;9.00;;;;;;;6.38;45.23;100536.42;24500;1355;3055840;-74
2021/11/17 11:46:55;;;;;;;20.20;10.10;;;;;;;6.52;44.85;100533.45;24506;1359;3049302;-74
2021/11/17 11:49:35;;;;;;;23.30;10.30;;;;;;;6.51;44.74;100532.77;24484;1357;3053132;-74
2021/11/17 11:52:12;;;;;;;24.00;9.70;;;;;;;6.45;44.80;100532.27;24524;1355;3051058;-71
2021/11/17 11:55:02;;;;;;;22.60;10.30;;;;;;;6.49;44.67;100535.27;24487;1361;3071377;-76
2021/11/17 11:57:56;;;;;;;20.30;9.90;;;;;;;6.55;44.36;100529.02;24494;1348;3048803;-73
2021/11/17 12:00:32;;;;;;;22.80;9.60;;;;;;;6.54;44.16;100523.48;24395;1363;3052595;-65
2021/11/17 12:03:10;;;;;;;28.60;10.50;;;;;;;6.63;44.05;100523.41;24472;1355;3053977;-71
2021/11/17 12:05:45;;;;;;;23.50;10.40;;;;;;;6.64;44.18;100521.66;24498;1360;3057715;-72
2021/11/17 12:08:27;;;;;;;27.10;10.20;;;;;;;6.66;43.98;100515.66;24515;1347;3049921;-74
2021/11/17 12:11:02;;;;;;;20.10;9.40;;;;;;;6.66;43.81;100516.36;24450;1361;3055432;-68
2021/11/17 12:13:34;;;;;;;26.60;11.00;;;;;;;6.76;43.78;100510.69;24474;1357;3053033;-70
2021/11/17 12:16:09;;;;;;;24.80;10.80;;;;;;;6.76;43.64;100510.01;24456;1355;3026317;-66
2021/11/17 12:18:49;;;;;;;26.40;11.10;;;;;;;6.80;43.61;100505.88;24436;1361;3050308;-68
2021/11/17 12:21:25;;;;;;;29.30;12.30;;;;;;;6.74;43.32;100500.12;24434;1360;3052531;-68
2021/11/17 12:24:37;;;;;;;22.60;10.80;;;;;;;6.81;43.11;100496.79;24461;1356;3051497;-70
2021/11/17 12:27:15;;;;;;;23.00;11.10;;;;;;;6.87;43.26;100494.70;24495;1355;3056248;-72
2021/11/17 12:29:47;;;;;;;22.10;11.40;;;;;;;7.06;42.95;100490.85;24482;1357;3052123;-71
2021/11/17 12:32:25;;;;;;;24.20;10.50;;;;;;;6.98;43.18;100494.22;24465;1355;3027329;-73
2021/11/17 12:35:16;;;;;;;23.20;11.60;;;;;;;7.02;42.74;100491.65;24518;1355;3051146;-64
2021/11/17 12:37:55;;;;;;;25.10;12.60;;;;;;;6.94;42.82;100483.00;24409;1354;3070745;-70
2021/11/17 12:40:45;;;;;;;26.20;11.70;;;;;;;6.94;42.93;100487.89;24503;1357;3049394;-67
2021/11/17 12:43:36;;;;;;;23.60;11.40;;;;;;;6.91;42.99;100487.27;24486;1355;3054530;-69
2021/11/17 12:46:13;;;;;;;28.50;11.20;;;;;;;6.85;43.05;100485.52;24436;1361;3054923;-68
2021/11/17 12:48:55;;;;;;;23.90;11.20;;;;;;;6.91;42.92;100483.63;24442;1357;3056333;-68
2021/11/17 12:51:30;;;;;;;21.90;10.60;;;;;;;6.92;42.62;100480.08;24496;1355;3052083;-70
2021/11/17 12:54:09;;;;;;;23.10;11.20;;;;;;;6.93;42.63;100477.98;24179;1359;3053004;-69
2021/11/17 12:56:52;;;;;;;21.10;9.80;;;;;;;6.94;42.66;100479.52;24509;1355;3051523;-68
2021/11/17 12:59:28;;;;;;;20.30;10.10;;;;;;;6.92;42.54;100476.45;24477;1355;3068975;-79
2021/11/17 13:02:01;;;;;;;22.50;10.90;;;;;;;6.87;42.84;100476.75;24478;1360;3049813;-74
2021/11/17 13:04:32;;;;;;;28.70;11.20;;;;;;;6.84;42.73;100483.12;24475;1363;3051714;-76
2021/11/17 13:07:05;;;;;;;24.40;10.00;;;;;;;6.89;42.47;100483.84;24502;1357;3026503;-71
2021/11/17 13:09:45;;;;;;;26.30;9.30;;;;;;;6.91;41.96;100484.64;24465;1362;3058697;-70
2021/11/17 13:12:26;;;;;;;26.00;10.20;;;;;;;6.82;41.74;100483.34;24442;1361;3052716;-68
2021/11/17 13:15:04;;;;;;;27.70;10.10;;;;;;;6.82;41.82;100477.77;24484;1353;3052229;-70
2021/11/17 13:17:34;;;;;;;23.90;9.90;;;;;;;6.81;42.00;100479.55;24427;1355;3052013;-69
2021/11/17 13:20:37;;;;;;;23.00;10.10;;;;;;;6.74;42.21;100477.83;24477;1355;3026729;-70
2021/11/17 13:23:11;;;;;;;24.80;9.30;;;;;;;6.74;42.04;100477.85;24503;1355;3052073;-76
2021/11/17 13:26:14;;;;;;;24.10;10.30;;;;;;;6.66;42.19;100478.73;24446;1362;3054949;-72
2021/11/17 13:28:48;;;;;;;22.20;9.50;;;;;;;6.63;42.17;100484.73;24450;1357;3052920;-70
2021/11/17 13:31:33;;;;;;;19.80;9.80;;;;;;;6.57;42.19;100481.79;24557;1352;3056414;-70
2021/11/17 13:34:06;;;;;;;21.40;9.10;;;;;;;6.53;42.05;100478.44;24533;1359;3049876;-78
2021/11/17 13:36:44;;;;;;;22.30;9.10;;;;;;;6.50;41.84;100484.77;24504;1357;3026718;-69
2021/11/17 13:39:15;;;;;;;17.10;8.80;;;;;;;6.44;41.91;100485.27;24474;1357;3050426;-79
2021/11/17 13:41:49;;;;;;;28.30;9.70;;;;;;;6.38;42.02;100489.62;24448;1361;3026554;-72
2021/11/17 13:44:20;;;;;;;23.20;10.50;;;;;;;6.34;42.04;100488.33;24506;1359;3049458;-75
2021/11/17 13:46:59;;;;;;;28.10;11.40;;;;;;;6.30;42.13;100493.85;24478;1358;3026527;-73
2021/11/17 13:49:28;;;;;;;29.30;13.00;;;;;;;6.19;42.53;100491.34;24469;1357;3051574;-74
2021/11/17 13:51:57;;;;;;;32.90;13.20;;;;;;;6.11;42.94;100483.72;24510;1358;3028479;-71
2021/11/17 13:54:26;;;;;;;33.50;13.40;;;;;;;5.97;43.00;100483.54;24466;1357;3050235;-76
2021/11/17 13:56:55;;;;;;;37.90;14.30;;;;;;;5.85;43.46;100487.98;24471;1355;3026586;-71
2021/11/17 13:59:24;;;;;;;36.10;14.90;;;;;;;5.74;44.09;100493.64;24431;1355;3048932;-72
2021/11/17 14:01:56;;;;;;;39.30;16.90;;;;;;;5.59;44.97;100493.66;24450;1358;3026699;-74
2021/11/17 14:04:25;;;;;;;45.30;17.40;;;;;;;5.46;45.80;100486.65;24476;1353;3069597;-67
2021/11/17 14:06:56;;;;;;;44.90;16.90;;;;;;;5.36;46.34;100484.27;24489;1353;3029962;-66
2021/11/17 14:09:26;;;;;;;55.60;20.00;;;;;;;5.25;46.79;100485.91;24505;1358;3026705;-77
2021/11/17 14:11:56;;;;;;;52.50;19.70;;;;;;;5.14;47.44;100479.40;24469;1355;3026336;-71
2021/11/17 14:14:25;;;;;;;46.80;20.30;;;;;;;5.04;47.96;100479.61;24534;1361;3027052;-71
2021/11/17 14:16:54;;;;;;;56.00;21.30;;;;;;;4.96;48.32;100477.33;24470;1355;3026673;-74
2021/11/17 14:19:24;;;;;;;46.80;19.50;;;;;;;4.91;48.73;100477.79;24503;1361;3050014;-74
2021/11/17 14:21:53;;;;;;;57.10;20.60;;;;;;;4.78;49.04;100475.29;24476;1359;3026733;-71